Time;durP1;ratioP1;P1;durP2;ratioP2;P2;SDS_P1;SDS_P2;PMS_P1;PMS_P2;Temp;Humidity;BMP_temperature;BMP_pressure;BME280_temperature;BME280_humidity;BME280_pressure;Samples;Min_cycle;Max_cycle;Signal;HPM_P1;HPM_P2
2022/05/24 00:03:18;;;;;;;2.60;1.30;;;;;;;24.44;33.85;99644.34;20799420;27;97592;-79
2022/05/24 00:13:18;;;;;;;2.03;1.30;;;;;;;24.42;33.93;99648.97;20793125;27;97324;-80
2022/05/24 00:23:22;;;;;;;1.30;1.13;;;;;;;24.42;34.05;99641.84;20790442;27;97744;-79
2022/05/24 00:33:23;;;;;;;1.98;1.42;;;;;;;24.41;34.02;99642.84;20808310;27;97034;-79
2022/05/24 00:43:47;;;;;;;1.80;1.15;;;;;;;24.40;33.89;99641.19;20812803;27;96924;-79
2022/05/24 00:53:52;;;;;;;1.98;1.30;;;;;;;24.39;34.17;99634.22;20798471;27;98237;-79
2022/05/24 01:03:52;;;;;;;2.15;1.27;;;;;;;24.38;34.06;99629.13;20805257;27;97150;-80
2022/05/24 01:13:57;;;;;;;1.33;1.05;;;;;;;24.36;33.98;99636.38;20788667;27;96976;-78
2022/05/24 01:24:39;;;;;;;1.20;1.10;;;;;;;24.36;34.07;99634.53;20789314;27;97594;-78
2022/05/24 01:45:03;;;;;;;3.22;1.05;;;;;;;24.32;34.13;99637.69;20793524;27;99671;-79
2022/05/24 01:55:08;;;;;;;1.10;0.98;;;;;;;24.32;34.04;99667.59;20802332;27;97527;-80
2022/05/24 02:05:10;;;;;;;2.85;1.10;;;;;;;24.33;34.10;99689.59;20788385;27;99671;-80
2022/05/24 02:15:24;;;;;;;0.87;0.87;;;;;;;24.30;34.05;99638.66;20795662;27;101592;-79
2022/05/24 02:25:32;;;;;;;2.95;1.10;;;;;;;24.29;34.11;99631.72;20775229;27;99168;-79
2022/05/24 02:35:33;;;;;;;1.20;1.10;;;;;;;24.25;34.11;99683.25;20796500;27;97035;-79
2022/05/24 02:45:33;;;;;;;1.85;1.17;;;;;;;24.24;34.32;99689.56;20776145;27;96882;-79
2022/05/24 02:55:34;;;;;;;1.55;1.00;;;;;;;24.21;34.37;99708.38;20772324;27;98285;-79
2022/05/24 03:05:36;;;;;;;1.30;1.17;;;;;;;24.16;34.42;99710.66;20789234;27;97883;-78
2022/05/24 03:15:40;;;;;;;1.20;1.10;;;;;;;24.14;34.69;99704.69;20793867;27;98983;-79
2022/05/24 03:25:40;;;;;;;1.85;1.17;;;;;;;24.17;34.82;99700.91;20799073;27;98308;-78
2022/05/24 03:35:41;;;;;;;1.40;1.10;;;;;;;24.19;34.82;99726.22;20806741;27;98070;-78
2022/05/24 03:45:43;;;;;;;1.88;1.20;;;;;;;24.20;35.01;99756.97;20809712;27;102478;-78
2022/05/24 03:55:43;;;;;;;1.20;0.93;;;;;;;24.20;35.08;99772.03;20811317;27;98356;-78
2022/05/24 04:05:45;;;;;;;2.03;1.20;;;;;;;24.19;35.43;99763.25;20800825;27;97923;-77
2022/05/24 04:15:45;;;;;;;2.75;1.30;;;;;;;24.19;35.61;99770.34;20770163;27;101500;-78
2022/05/24 04:25:46;;;;;;;1.30;1.20;;;;;;;24.18;35.68;99782.75;20792562;27;97960;-78
2022/05/24 04:35:47;;;;;;;4.90;1.50;;;;;;;24.22;35.87;99772.72;20777466;27;100546;-77
2022/05/24 04:45:47;;;;;;;3.10;1.60;;;;;;;24.24;36.35;99778.66;20792660;27;97368;-74
2022/05/24 04:55:49;;;;;;;9.73;2.65;;;;;;;24.17;36.91;99773.16;20799933;27;97376;-75
2022/05/24 05:05:51;;;;;;;9.43;2.50;;;;;;;24.18;37.61;99781.91;20770031;27;98910;-77
2022/05/24 05:15:51;;;;;;;10.18;2.38;;;;;;;24.09;38.01;99786.31;20804852;27;98252;-76
2022/05/24 05:25:52;;;;;;;6.32;2.20;;;;;;;23.97;38.20;99806.88;20787660;27;97643;-76
2022/05/24 05:35:53;;;;;;;4.68;2.10;;;;;;;24.06;38.05;99811.25;20810652;27;97516;-78
2022/05/24 05:45:55;;;;;;;4.03;1.83;;;;;;;24.09;37.73;99799.53;20775471;27;98057;-77
2022/05/24 05:55:57;;;;;;;4.95;2.20;;;;;;;24.10;37.83;99807.31;20786660;27;100125;-80
2022/05/24 06:06:02;;;;;;;3.53;1.90;;;;;;;24.12;37.79;99817.75;20770931;27;99584;-79
2022/05/24 06:16:03;;;;;;;3.25;2.00;;;;;;;24.11;37.89;99813.47;20763727;27;98654;-78
2022/05/24 06:26:03;;;;;;;4.32;1.73;;;;;;;24.10;37.86;99809.97;20799320;27;96926;-78
2022/05/24 06:36:05;;;;;;;4.65;1.98;;;;;;;24.08;37.83;99808.47;20791263;27;97584;-78
2022/05/24 06:46:09;;;;;;;4.57;1.90;;;;;;;24.07;37.82;99810.28;20779168;27;98065;-78
2022/05/24 06:56:10;;;;;;;2.35;1.77;;;;;;;24.08;37.90;99814.59;20778335;27;98432;-77
2022/05/24 07:06:12;;;;;;;4.30;1.90;;;;;;;24.07;38.08;99809.44;20807145;27;97255;-79
2022/05/24 07:16:13;;;;;;;3.10;1.90;;;;;;;24.10;38.20;99812.59;20793628;27;97476;-80
2022/05/24 07:26:17;;;;;;;4.78;1.90;;;;;;;24.15;38.32;99814.81;20804179;27;96749;-81
2022/05/24 07:36:17;;;;;;;1.98;1.70;;;;;;;24.22;38.28;99801.81;20809544;27;98041;-82
2022/05/24 07:46:18;;;;;;;2.72;1.70;;;;;;;24.29;38.05;99813.41;20807402;27;97481;-79
2022/05/24 07:56:20;;;;;;;2.53;1.45;;;;;;;24.36;37.93;99817.09;20804244;27;97723;-81
2022/05/24 08:06:20;;;;;;;2.77;1.50;;;;;;;24.43;37.94;99817.34;20796733;27;98536;-78
2022/05/24 08:16:21;;;;;;;1.60;1.50;;;;;;;24.48;37.95;99827.47;20804769;27;97655;-77
2022/05/24 08:26:21;;;;;;;3.75;1.65;;;;;;;24.56;38.05;99822.22;20772047;27;97521;-79
2022/05/24 08:36:23;;;;;;;4.85;1.90;;;;;;;24.60;37.91;99811.16;20799159;27;97020;-79
2022/05/24 08:57:03;;;;;;;6.72;2.00;;;;;;;24.67;38.10;99805.28;20792315;27;98138;-76
2022/05/24 09:07:24;;;;;;;4.88;1.95;;;;;;;24.67;37.88;99805.28;20789605;27;97097;-81
2022/05/24 09:17:59;;;;;;;2.93;1.67;;;;;;;24.55;38.15;99807.34;20769829;27;100639;-78
2022/05/24 09:28:00;;;;;;;4.30;1.50;;;;;;;24.37;38.76;99812.66;20763491;27;100018;-77
2022/05/24 09:38:03;;;;;;;2.92;1.90;;;;;;;24.37;38.51;99818.78;20797301;27;97654;-77
2022/05/24 09:48:04;;;;;;;3.00;2.70;;;;;;;24.43;38.58;99809.41;20800694;27;97097;-77
2022/05/24 09:58:28;;;;;;;2.75;1.95;;;;;;;24.42;38.67;99816.50;20776215;27;97053;-79
2022/05/24 10:08:35;;;;;;;2.80;1.45;;;;;;;24.39;38.80;99811.53;20793534;27;97611;-78
2022/05/24 10:19:13;;;;;;;1.45;1.35;;;;;;;24.27;38.04;99831.28;20764222;27;99050;-77
2022/05/24 10:29:52;;;;;;;2.28;1.30;;;;;;;24.29;38.20;99821.34;20780892;27;99350;-78
2022/05/24 10:40:17;;;;;;;4.68;1.60;;;;;;;24.27;38.93;99812.75;20693010;27;97162;-78
2022/05/24 10:50:34;;;;;;;2.50;1.80;;;;;;;24.34;38.21;99779.41;20778952;27;100415;-78
2022/05/24 11:00:43;;;;;;;1.95;1.33;;;;;;;24.31;38.63;99800.88;20798832;27;96935;-78
2022/05/24 11:10:49;;;;;;;1.88;1.50;;;;;;;24.25;38.20;99797.00;20789886;27;97912;-79
2022/05/24 11:20:55;;;;;;;2.40;1.75;;;;;;;24.36;39.12;99781.88;20775744;27;100925;-78
2022/05/24 11:31:28;;;;;;;8.25;1.77;;;;;;;24.46;38.88;99783.47;20773861;27;98259;-79
2022/05/24 11:41:31;;;;;;;4.35;1.55;;;;;;;24.56;38.50;99764.84;20788042;27;97663;-76
2022/05/24 11:51:43;;;;;;;3.47;1.63;;;;;;;24.67;38.60;99768.22;20819657;27;97702;-77
2022/05/24 12:01:46;;;;;;;2.47;1.70;;;;;;;24.73;38.73;99752.53;20828358;27;97507;-77
2022/05/24 12:12:08;;;;;;;2.85;1.77;;;;;;;24.84;38.40;99740.00;20796265;27;97610;-77
2022/05/24 12:22:27;;;;;;;5.77;1.90;;;;;;;24.92;39.02;99737.41;20807414;27;99045;-79
2022/05/24 12:32:33;;;;;;;2.42;1.90;;;;;;;25.02;38.52;99735.44;20793386;27;97311;-78
2022/05/24 12:42:41;;;;;;;3.83;2.05;;;;;;;25.03;38.64;99729.16;20769517;27;100421;-77
2022/05/24 12:52:42;;;;;;;5.25;1.70;;;;;;;25.14;38.93;99722.75;20800801;27;97456;-76
2022/05/24 13:02:47;;;;;;;3.40;1.90;;;;;;;25.28;39.52;99709.84;20800135;27;97009;-78
2022/05/24 13:13:01;;;;;;;6.03;2.30;;;;;;;25.32;38.84;99712.03;20790236;27;98551;-78
2022/05/24 13:23:16;;;;;;;4.40;1.90;;;;;;;25.44;38.16;99704.63;20793924;27;97196;-78
2022/05/24 13:33:35;;;;;;;3.10;2.08;;;;;;;25.52;37.86;99711.75;20796194;27;97011;-79
2022/05/24 13:43:44;;;;;;;6.15;2.13;;;;;;;25.50;39.66;99703.97;20790332;27;97498;-79
2022/05/24 13:53:46;;;;;;;7.05;1.90;;;;;;;25.51;40.44;99686.22;20803111;27;97748;-79
2022/05/24 14:04:19;;;;;;;4.40;1.67;;;;;;;25.49;38.76;99694.34;20773503;27;97680;-81
2022/05/24 14:14:21;;;;;;;2.20;2.00;;;;;;;25.52;38.08;99691.38;20776041;27;97794;-77
2022/05/24 14:24:23;;;;;;;2.30;1.70;;;;;;;25.54;38.30;99693.88;20788337;27;97068;-76
2022/05/24 14:34:25;;;;;;;2.83;2.05;;;;;;;25.52;37.82;99696.69;20811641;27;97273;-75
2022/05/24 14:44:29;;;;;;;4.60;2.27;;;;;;;25.47;37.48;99691.03;20788533;27;97605;-76
2022/05/24 14:54:44;;;;;;;7.05;3.03;;;;;;;25.50;37.54;99697.81;20793367;27;97020;-80
2022/05/24 15:04:44;;;;;;;3.80;2.58;;;;;;;25.55;36.96;99696.34;20781014;27;99982;-81
2022/05/24 15:25:10;;;;;;;3.25;2.20;;;;;;;25.54;37.08;99691.22;20820170;27;97462;-82
2022/05/24 15:35:12;;;;;;;5.18;1.88;;;;;;;25.50;35.62;99681.91;20821145;27;97692;-85
2022/05/24 15:45:15;;;;;;;2.47;1.52;;;;;;;25.44;35.80;99672.81;20810369;27;97442;-82
2022/05/24 15:55:17;;;;;;;6.82;1.80;;;;;;;25.42;35.29;99667.66;20820990;27;98809;-82
2022/05/24 16:15:45;;;;;;;3.33;1.90;;;;;;;25.32;36.24;99664.31;20798294;27;99625;-80
2022/05/24 16:25:46;;;;;;;5.05;1.85;;;;;;;25.31;36.19;99673.25;20786247;27;98816;-78
2022/05/24 16:35:49;;;;;;;2.47;2.27;;;;;;;25.27;36.60;99671.94;20785635;27;100303;-78
2022/05/24 16:45:50;;;;;;;3.00;1.90;;;;;;;25.26;36.92;99664.97;20793157;27;97642;-79
2022/05/24 17:06:18;;;;;;;5.22;1.75;;;;;;;25.13;37.24;99676.03;20793751;27;97647;-77
2022/05/24 17:16:19;;;;;;;;;;;;;;;25.10;37.42;99687.78;20770765;27;97124;-77
2022/05/24 17:26:20;;;;;;;3.33;2.10;;;;;;;25.08;37.78;99695.09;20775697;27;97861;-80
2022/05/24 17:36:20;;;;;;;7.73;2.00;;;;;;;24.99;38.65;99705.81;20748287;27;97976;-81
2022/05/24 17:46:21;;;;;;;4.00;2.17;;;;;;;24.93;38.36;99694.03;20791291;27;101890;-81
2022/05/24 17:56:24;;;;;;;4.47;2.50;;;;;;;24.86;38.71;99690.38;20791366;27;98709;-80
2022/05/24 18:06:25;;;;;;;5.07;3.00;;;;;;;24.74;38.92;99690.66;20773034;27;100695;-80
2022/05/24 18:16:28;;;;;;;2.63;2.43;;;;;;;24.69;39.38;99708.00;20794734;27;99912;-79
2022/05/24 18:37:02;;;;;;;2.42;1.88;;;;;;;24.54;39.89;99727.09;20791997;27;96860;-78
2022/05/24 18:47:05;;;;;;;3.40;2.30;;;;;;;24.73;39.73;99751.69;20748149;27;97898;-78
2022/05/24 18:57:06;;;;;;;5.50;2.10;;;;;;;24.78;39.67;99750.25;20787202;27;100649;-77
2022/05/24 19:07:18;;;;;;;5.23;2.37;;;;;;;24.82;39.92;99769.28;20780675;27;97501;-77
2022/05/24 19:17:21;;;;;;;12.03;2.83;;;;;;;24.85;40.45;99774.28;20781224;27;100584;-78
2022/05/24 19:27:25;;;;;;;4.00;2.80;;;;;;;24.87;40.47;99795.31;20799858;27;97486;-77
2022/05/24 19:37:25;;;;;;;9.13;2.63;;;;;;;24.85;40.46;99792.81;20791082;27;101090;-77
2022/05/24 19:47:26;;;;;;;7.63;2.70;;;;;;;24.84;40.75;99798.25;20748940;27;97448;-76
2022/05/24 19:57:28;;;;;;;7.75;2.38;;;;;;;24.81;40.76;99804.69;20743927;27;102169;-77
2022/05/24 20:07:29;;;;;;;3.43;2.40;;;;;;;24.83;40.74;99817.78;20784416;27;99384;-77
2022/05/24 20:17:30;;;;;;;4.70;2.40;;;;;;;24.82;40.50;99830.19;20788216;27;97659;-77
2022/05/24 20:27:32;;;;;;;4.25;2.33;;;;;;;24.79;40.88;99817.25;20777127;27;98474;-77
2022/05/24 20:37:32;;;;;;;4.57;2.37;;;;;;;24.77;40.52;99813.97;20773398;27;98292;-77
2022/05/24 20:47:33;;;;;;;2.38;2.17;;;;;;;24.77;40.61;99833.31;20788652;27;101154;-77
2022/05/24 20:57:33;;;;;;;6.15;2.50;;;;;;;24.76;40.77;99820.25;20774561;27;98094;-79
2022/05/24 21:07:34;;;;;;;2.70;2.05;;;;;;;24.75;40.70;99816.75;20733908;27;98698;-78
2022/05/24 21:17:36;;;;;;;2.80;2.20;;;;;;;24.73;40.51;99810.78;20747398;27;100987;-79
2022/05/24 21:38:01;;;;;;;4.60;2.03;;;;;;;24.72;40.58;99806.47;20792947;27;96951;-79
2022/05/24 21:48:07;;;;;;;6.18;2.20;;;;;;;24.72;40.51;99805.66;20784161;27;100370;-79
2022/05/24 21:58:09;;;;;;;2.53;1.85;;;;;;;24.72;40.61;99801.19;20771451;27;100253;-79
2022/05/24 22:08:10;;;;;;;2.58;2.00;;;;;;;24.70;40.75;99824.31;20761530;27;98257;-78
2022/05/24 22:18:11;;;;;;;3.17;1.98;;;;;;;24.69;40.60;99829.78;20711006;27;99081;-78
2022/05/24 22:28:11;;;;;;;2.55;1.77;;;;;;;24.69;40.59;99869.50;20766058;27;99794;-79
2022/05/24 22:38:12;;;;;;;4.28;2.10;;;;;;;24.68;40.75;99934.00;20777354;27;98531;-80
2022/05/24 22:48:13;;;;;;;3.87;2.33;;;;;;;24.68;40.49;99920.78;20763556;27;99097;-79
2022/05/24 22:58:13;;;;;;;2.17;1.98;;;;;;;24.67;40.76;99935.00;20768211;27;96956;-79
2022/05/24 23:08:14;;;;;;;2.47;1.90;;;;;;;24.66;40.61;99942.13;20740143;27;97746;-79
2022/05/24 23:18:15;;;;;;;2.95;2.17;;;;;;;24.64;40.88;99919.41;20754672;27;98784;-79
2022/05/24 23:28:16;;;;;;;3.80;1.97;;;;;;;24.65;41.10;99921.06;20765818;27;98180;-79
2022/05/24 23:38:17;;;;;;;3.15;2.00;;;;;;;24.64;41.52;99896.41;20773973;27;98380;-79
2022/05/24 23:48:19;;;;;;;3.80;1.97;;;;;;;24.61;41.44;99864.94;20799988;27;98175;-79
2022/05/24 23:58:19;;;;;;;6.37;2.10;;;;;;;24.61;41.45;99864.94;20769991;27;98332;-78
